createdAt,value
2023-11-02T00:00:10.725Z,12.63
2023-11-02T00:05:45.985Z,12.57
2023-11-02T00:10:48.256Z,12.54
2023-11-02T00:15:50.146Z,12.54
2023-11-02T00:20:55.678Z,12.57
2023-11-02T00:25:59.152Z,12.58
2023-11-02T00:31:02.122Z,12.53
2023-11-02T00:36:04.352Z,12.50
2023-11-02T00:41:07.037Z,12.47
2023-11-02T00:46:09.287Z,12.42
2023-11-02T00:51:21.889Z,12.42
2023-11-02T00:56:28.714Z,12.43
2023-11-02T01:01:30.655Z,12.42
2023-11-02T01:06:34.486Z,12.39
2023-11-02T01:11:39.168Z,12.35
2023-11-02T01:16:42.620Z,12.27
2023-11-02T01:21:45.158Z,12.21
2023-11-02T01:27:02.441Z,12.18
2023-11-02T01:32:04.772Z,12.12
2023-11-02T01:37:06.706Z,12.08
2023-11-02T01:42:40.999Z,12.04
2023-11-02T01:47:54.967Z,12.00
2023-11-02T01:53:09.087Z,12.01
2023-11-02T01:58:37.284Z,12.01
2023-11-02T02:03:50.961Z,11.99
2023-11-02T02:09:20.788Z,11.94
2023-11-02T02:14:25.621Z,11.91
2023-11-02T02:19:45.645Z,11.88
2023-11-02T02:25:24.702Z,11.87
2023-11-02T02:30:47.446Z,11.83
2023-11-02T02:36:15.086Z,11.80
2023-11-02T02:41:20.809Z,11.75
2023-11-02T02:46:26.916Z,11.70
2023-11-02T02:51:30.968Z,11.66
2023-11-02T02:56:37.263Z,11.60
2023-11-02T03:01:44.638Z,11.55
2023-11-02T03:06:50.943Z,11.56
2023-11-02T03:11:59.092Z,11.54
2023-11-02T03:17:16.802Z,11.49
2023-11-02T03:22:24.373Z,11.44
2023-11-02T03:27:33.940Z,11.42
2023-11-02T03:33:00.971Z,11.42
2023-11-02T03:38:06.289Z,11.40
2023-11-02T03:43:22.448Z,11.34
2023-11-02T03:48:49.584Z,11.25
2023-11-02T03:54:44.362Z,11.15
2023-11-02T03:59:56.865Z,11.08
2023-11-02T04:05:16.612Z,11.01
2023-11-02T04:10:23.851Z,10.94
2023-11-02T04:15:26.133Z,10.89
2023-11-02T04:20:28.338Z,10.85
2023-11-02T04:25:31.477Z,10.82
2023-11-02T04:30:34.103Z,10.83
2023-11-02T04:35:37.907Z,10.78
2023-11-02T04:40:42.919Z,10.70
2023-11-02T04:45:45.105Z,10.64
2023-11-02T04:50:48.583Z,10.57
2023-11-02T04:55:50.648Z,10.56
2023-11-02T05:00:54.358Z,10.52
2023-11-02T05:05:57.104Z,10.48
2023-11-02T05:10:59.406Z,10.47
2023-11-02T05:16:01.560Z,10.44
2023-11-02T05:21:03.959Z,10.43
2023-11-02T05:26:07.350Z,10.40
2023-11-02T05:31:09.655Z,10.35
2023-11-02T05:36:11.866Z,10.35
2023-11-02T05:41:14.045Z,10.37
2023-11-02T05:46:16.185Z,10.36
2023-11-02T05:51:18.248Z,10.34
2023-11-02T05:56:20.171Z,10.30
2023-11-02T06:01:22.145Z,10.26
2023-11-02T06:06:24.232Z,10.24
2023-11-02T06:11:27.848Z,10.22
2023-11-02T06:16:30.080Z,10.20
2023-11-02T06:21:32.093Z,10.21
2023-11-02T06:26:34.351Z,10.21
2023-11-02T06:31:37.607Z,10.24
2023-11-02T06:36:40.264Z,10.28
2023-11-02T06:41:42.583Z,10.34
2023-11-02T06:46:44.974Z,10.40
2023-11-02T06:51:47.556Z,10.48
2023-11-02T06:56:49.808Z,10.50
2023-11-02T07:01:54.254Z,10.53
2023-11-02T07:06:56.744Z,10.60
2023-11-02T07:11:58.945Z,10.69
2023-11-02T07:17:01.130Z,10.78
2023-11-02T07:22:03.377Z,10.89
2023-11-02T07:27:06.132Z,10.95
2023-11-02T07:32:10.245Z,11.04
2023-11-02T07:37:12.829Z,11.07
2023-11-02T07:42:15.009Z,11.12
2023-11-02T07:47:18.823Z,11.15
2023-11-02T07:52:20.928Z,11.20
2023-11-02T07:57:23.451Z,11.25
2023-11-02T08:02:25.553Z,11.28
2023-11-02T08:07:27.701Z,11.32
2023-11-02T08:12:30.873Z,11.33
2023-11-02T08:17:35.387Z,11.35
2023-11-02T08:22:37.958Z,11.46
2023-11-02T08:27:40.279Z,11.52
2023-11-02T08:32:42.474Z,11.54
2023-11-02T08:37:45.205Z,11.57
2023-11-02T08:42:48.795Z,11.57
2023-11-02T08:47:50.928Z,11.57
2023-11-02T08:52:52.894Z,11.61
2023-11-02T08:57:55.017Z,11.64
2023-11-02T09:02:57.284Z,11.65
2023-11-02T09:07:59.474Z,11.63
2023-11-02T09:13:02.064Z,11.62
2023-11-02T09:18:04.226Z,11.62
2023-11-02T09:23:06.233Z,11.61
2023-11-02T09:28:09.461Z,11.78
2023-11-02T09:33:12.485Z,11.76
2023-11-02T09:38:15.812Z,11.71
2023-11-02T09:43:20.305Z,11.69
2023-11-02T09:48:22.410Z,11.69
2023-11-02T09:53:24.959Z,11.72
2023-11-02T09:58:28.331Z,11.81
2023-11-02T10:03:30.474Z,11.86
2023-11-02T10:08:32.834Z,11.87
2023-11-02T10:13:34.855Z,11.94
2023-11-02T10:18:37.370Z,12.09
2023-11-02T10:23:50.925Z,12.21
2023-11-02T10:28:55.764Z,12.31
2023-11-02T10:34:01.275Z,12.41
2023-11-02T10:39:03.525Z,12.59
2023-11-02T10:44:08.308Z,12.71
2023-11-02T10:49:13.016Z,12.73
2023-11-02T10:54:44.723Z,12.74
2023-11-02T10:59:48.985Z,12.79
2023-11-02T11:04:51.950Z,12.83
2023-11-02T11:09:56.259Z,12.80
2023-11-02T11:14:59.663Z,12.80
2023-11-02T11:20:01.821Z,12.81
2023-11-02T11:25:05.921Z,12.78
2023-11-02T11:30:23.354Z,12.79
2023-11-02T11:35:26.628Z,12.84
2023-11-02T11:40:31.117Z,12.94
2023-11-02T11:45:36.443Z,13.06
2023-11-02T11:50:42.738Z,13.06
2023-11-02T11:55:48.289Z,13.00
2023-11-02T12:00:50.243Z,12.93
2023-11-02T12:05:53.554Z,12.87
2023-11-02T12:11:01.246Z,12.81
2023-11-02T12:16:05.394Z,12.76
2023-11-02T12:21:21.739Z,12.71
2023-11-02T12:26:28.905Z,12.72
2023-11-02T12:31:35.495Z,12.75
2023-11-02T12:36:39.688Z,12.72
2023-11-02T12:41:43.474Z,12.64
2023-11-02T12:46:49.461Z,12.63
2023-11-02T12:51:51.512Z,12.61
2023-11-02T12:56:55.928Z,12.62
2023-11-02T13:02:01.245Z,12.61
2023-11-02T13:07:21.256Z,12.64
2023-11-02T13:12:23.281Z,12.68
2023-11-02T13:17:26.122Z,12.66
2023-11-02T13:22:28.221Z,12.60
2023-11-02T13:27:30.384Z,12.60
2023-11-02T13:32:32.480Z,12.59
2023-11-02T13:37:34.997Z,12.54
2023-11-02T13:42:44.150Z,12.51
2023-11-02T13:47:49.825Z,12.50
2023-11-02T13:52:51.876Z,12.49
2023-11-02T13:57:54.225Z,12.45
2023-11-02T14:02:57.006Z,12.44
2023-11-02T14:07:59.305Z,12.45
2023-11-02T14:13:02.425Z,12.47
2023-11-02T14:18:06.551Z,12.45
2023-11-02T14:23:11.289Z,12.46
2023-11-02T14:28:13.219Z,12.47
2023-11-02T14:33:16.560Z,12.41
2023-11-02T14:38:20.788Z,12.42
2023-11-02T14:43:23.879Z,12.41
2023-11-02T14:48:25.943Z,12.37
2023-11-02T14:53:27.920Z,12.35
2023-11-02T14:58:29.887Z,12.32
2023-11-02T15:03:33.571Z,12.35
2023-11-02T15:08:36.180Z,12.36
2023-11-02T15:13:39.072Z,12.38
2023-11-02T15:18:43.125Z,12.41
2023-11-02T15:23:45.506Z,12.44
2023-11-02T15:28:48.304Z,12.46
2023-11-02T15:33:50.465Z,12.42
2023-11-02T15:38:52.637Z,12.38
2023-11-02T15:43:54.601Z,12.35
2023-11-02T15:48:56.672Z,12.31
2023-11-02T15:53:58.629Z,12.32
2023-11-02T15:59:01.483Z,12.31
2023-11-02T16:04:03.548Z,12.36
2023-11-02T16:09:05.899Z,12.37
2023-11-02T16:14:07.901Z,12.39
2023-11-02T16:19:10.045Z,12.39
2023-11-02T16:24:12.447Z,12.43
2023-11-02T16:29:14.867Z,12.44
2023-11-02T16:39:26.625Z,12.42
2023-11-02T16:44:28.961Z,12.42
2023-11-02T16:49:31.051Z,12.37
2023-11-02T16:54:33.372Z,12.34
2023-11-02T16:59:36.702Z,12.32
2023-11-02T17:04:39.848Z,12.29
2023-11-02T17:09:41.952Z,12.23
2023-11-02T17:14:44.206Z,12.22
2023-11-02T17:19:46.248Z,12.16
2023-11-02T17:24:48.469Z,12.05
2023-11-02T17:29:51.330Z,11.97
2023-11-02T17:34:53.542Z,11.88
2023-11-02T17:39:55.919Z,11.85
2023-11-02T17:44:58.746Z,11.79
2023-11-02T17:50:00.874Z,11.77
2023-11-02T17:55:03.316Z,11.73
2023-11-02T18:00:08.309Z,11.67
2023-11-02T18:05:14.526Z,11.65
2023-11-02T18:10:16.658Z,11.67
2023-11-02T18:15:18.609Z,11.64
2023-11-02T18:20:20.647Z,11.67
2023-11-02T18:25:23.163Z,11.65
2023-11-02T18:30:25.554Z,11.62
2023-11-02T18:35:27.643Z,11.55
2023-11-02T18:40:30.062Z,11.49
2023-11-02T18:45:32.114Z,11.42
2023-11-02T18:50:34.525Z,11.41
2023-11-02T18:55:37.591Z,11.39
2023-11-02T19:00:41.946Z,11.37
2023-11-02T19:05:44.922Z,11.37
2023-11-02T19:10:46.903Z,11.36
2023-11-02T19:15:49.826Z,11.37
2023-11-02T19:20:52.496Z,11.36
2023-11-02T19:25:55.205Z,11.38
2023-11-02T19:30:57.466Z,11.41
2023-11-02T19:36:02.656Z,11.44
2023-11-02T19:41:04.714Z,11.45
2023-11-02T19:46:06.663Z,11.43
2023-11-02T19:51:15.197Z,11.45
2023-11-02T19:56:17.135Z,11.45
2023-11-02T20:01:19.157Z,11.47
2023-11-02T20:06:21.037Z,11.48
2023-11-02T20:11:23.447Z,11.54
2023-11-02T20:16:25.357Z,11.54
2023-11-02T20:21:27.409Z,11.48
2023-11-02T20:26:29.690Z,11.41
2023-11-02T20:31:31.621Z,11.39
2023-11-02T20:36:33.674Z,11.37
2023-11-02T20:41:35.613Z,11.36
2023-11-02T20:46:42.134Z,11.41
2023-11-02T20:51:46.183Z,11.46
2023-11-02T20:56:48.126Z,11.48
2023-11-02T21:01:50.469Z,11.52
2023-11-02T21:06:58.713Z,11.55
2023-11-02T21:12:03.785Z,11.53
2023-11-02T21:17:06.185Z,11.54
2023-11-02T21:22:11.829Z,11.51
2023-11-02T21:27:15.384Z,11.46
2023-11-02T21:32:17.334Z,11.46
2023-11-02T21:37:19.287Z,11.50
2023-11-02T21:42:21.417Z,11.55
2023-11-02T21:47:23.587Z,11.60
2023-11-02T21:52:25.386Z,11.62
2023-11-02T21:57:27.366Z,11.60
2023-11-02T22:02:29.303Z,11.60
2023-11-02T22:07:31.346Z,11.62
2023-11-02T22:12:33.236Z,11.64
2023-11-02T22:17:35.218Z,11.66
2023-11-02T22:22:37.853Z,11.64
2023-11-02T22:27:39.773Z,11.57
2023-11-02T22:32:42.897Z,11.52
2023-11-02T22:37:44.838Z,11.53
2023-11-02T22:42:47.191Z,11.51
2023-11-02T22:47:49.371Z,11.49
2023-11-02T22:52:52.669Z,11.50
2023-11-02T22:57:55.206Z,11.52
2023-11-02T23:02:57.125Z,11.55
2023-11-02T23:07:59.191Z,11.55
2023-11-02T23:13:01.218Z,11.52
2023-11-02T23:18:03.901Z,11.49
2023-11-02T23:23:07.126Z,11.47
2023-11-02T23:28:09.209Z,11.47
2023-11-02T23:33:11.274Z,11.49
2023-11-02T23:38:13.396Z,11.45
2023-11-02T23:43:17.572Z,11.42
2023-11-02T23:48:19.764Z,11.39
2023-11-02T23:53:22.130Z,11.34
2023-11-02T23:58:24.109Z,11.32
